Skip Navigation Links
NOAA logo - Click to go to the NOAA homepage
NOAA's National Weather Service
Alaska Aviation Weather Unit
  NWS logo - Click to go to the NWS homepage
Left Navbar Graphic     12 AKDT = 20 GMT

   
NOAA is celebrating 200 years of science, service, and stewardship. Visit the NOAA 200th celebration Web site to learn more.
USA.gov is the U.S. Government's official Web portal to all Federal, state and local government Web resources and services.
Facebook
NWS on Facebook

Important Change Regarding the AAWU Web Presence

 

Over the last several months, the AAWU has been working to navigate its webpages to a nationally supported server. Security, as well as other needs, have necessitated the change.  We have been given an extension for the site changeover while we diligently work at addressing feedback received. As of July 14, 2017, aawu.arh.noaa.gov will be discontinued. The new AAWU web address is weather.gov/aawu. It is now live and will run in-parallel with the old site until it is discontinued on July 14, 2017. Please continue to send any feedback or questions regarding the new webpages to nws.ar.aawu.webauthors@noaa.gov.  Thank you for your patience during this time of transition.
AAWU Home :: Display TAF Add Bookmark
TAF PAHO 251720Z 2518/2618 25007KT P6SM OVC040
     FM261000 VRB03KT P6SM -RA SCT015 OVC025=

METAR PAHO 251453Z AUTO 06004KT 10SM OVC040 12/10 A3002 RMK AO2 SLP167 T01220100 56006 TSNO $= METAR PAHO 251553Z AUTO 00000KT 10SM OVC038 13/11 A3002 RMK AO2 SLP167 T01280106 TSNO= METAR PAHO 251653Z 00000KT 10SM FEW034 FEW045 13/11 A3002 RMK AO2 SLP167 T01330106= METAR PAHO 251753Z 10004KT 10SM OVC033 14/11 A3001 RMK AO2 SLP164 T01390111 10139 20117 58003= METAR PAHO 251853Z 00000KT 10SM OVC031 14/11 A3001 RMK AO2 SLP162 T01390111= METAR PAHO 251953Z 26003KT 10SM BKN039 BKN050 OVC080 16/11 A3000 RMK AO2 SLP160 T01560111=
 Alaska TAF Map

NOAA's National Weather Service
Alaska Aviation Weather Unit
6930 Sand Lake Road
Anchorage, AK 99502-1845
Disclaimer
Credits
Glossary
Privacy Policy
About Us
Career Opportunities
Contact AAWU Internet Services Site last modified: April, 17th 2012